createdAt,value
2023-05-02T00:00:59.680Z,11.77
2023-05-02T00:03:26.374Z,11.75
2023-05-02T00:05:53.113Z,11.78
2023-05-02T00:08:19.649Z,11.76
2023-05-02T00:10:47.812Z,11.76
2023-05-02T00:13:14.438Z,11.75
2023-05-02T00:15:41.185Z,11.77
2023-05-02T00:18:07.802Z,11.77
2023-05-02T00:20:34.400Z,11.82
2023-05-02T00:23:01.313Z,11.80
2023-05-02T00:25:28.046Z,11.83
2023-05-02T00:27:56.723Z,11.84
2023-05-02T00:30:23.355Z,11.89
2023-05-02T00:32:49.962Z,11.87
2023-05-02T00:35:16.617Z,11.91
2023-05-02T00:37:43.357Z,11.91
2023-05-02T00:40:10.862Z,11.88
2023-05-02T00:42:38.073Z,11.91
2023-05-02T00:45:07.431Z,11.92
2023-05-02T00:47:34.584Z,11.93
2023-05-02T00:50:01.939Z,11.90
2023-05-02T00:52:29.090Z,11.92
2023-05-02T00:54:55.787Z,11.91
2023-05-02T00:57:22.528Z,11.88
2023-05-02T00:59:50.961Z,11.86
2023-05-02T01:02:32.566Z,11.88
2023-05-02T01:05:11.181Z,11.87
2023-05-02T01:07:57.026Z,11.85
2023-05-02T01:10:30.222Z,11.86
2023-05-02T01:13:01.763Z,11.86
2023-05-02T01:15:28.658Z,11.84
2023-05-02T01:18:00.725Z,11.85
2023-05-02T01:20:29.284Z,11.82
2023-05-02T01:23:03.022Z,11.83
2023-05-02T01:25:45.884Z,11.80
2023-05-02T01:28:21.373Z,11.80
2023-05-02T01:30:50.641Z,11.80
2023-05-02T01:33:18.729Z,11.82
2023-05-02T01:35:49.547Z,11.76
2023-05-02T01:38:18.874Z,11.73
2023-05-02T01:40:46.898Z,11.75
2023-05-02T01:43:15.310Z,11.73
2023-05-02T01:45:44.028Z,11.69
2023-05-02T01:48:14.430Z,11.73
2023-05-02T01:50:43.019Z,11.71
2023-05-02T01:53:11.407Z,11.69
2023-05-02T01:55:41.467Z,11.66
2023-05-02T01:58:09.129Z,11.67
2023-05-02T02:00:38.737Z,11.66
2023-05-02T02:03:07.493Z,11.65
2023-05-02T02:05:37.682Z,11.60
2023-05-02T02:08:04.702Z,11.59
2023-05-02T02:10:37.084Z,11.55
2023-05-02T02:13:07.367Z,11.58
2023-05-02T02:15:35.517Z,11.54
2023-05-02T02:18:05.597Z,11.53
2023-05-02T02:20:32.767Z,11.56
2023-05-02T02:23:05.145Z,11.51
2023-05-02T02:25:32.038Z,11.54
2023-05-02T02:27:58.803Z,11.51
2023-05-02T02:30:25.415Z,11.49
2023-05-02T02:32:52.178Z,11.48
2023-05-02T02:35:19.432Z,11.46
2023-05-02T02:37:54.779Z,11.47
2023-05-02T02:40:32.945Z,11.49
2023-05-02T02:43:07.968Z,11.46
2023-05-02T02:45:38.593Z,11.50
2023-05-02T02:48:17.204Z,11.51
2023-05-02T02:50:54.507Z,11.48
2023-05-02T02:53:27.416Z,11.44
2023-05-02T02:56:02.351Z,11.43
2023-05-02T02:58:46.706Z,11.40
2023-05-02T03:01:17.788Z,11.40
2023-05-02T03:03:45.351Z,11.37
2023-05-02T03:06:12.930Z,11.36
2023-05-02T03:08:39.944Z,11.34
2023-05-02T03:11:08.360Z,11.33
2023-05-02T03:13:35.534Z,11.32
2023-05-02T03:16:34.041Z,11.30
2023-05-02T03:19:01.691Z,11.26
2023-05-02T03:21:28.550Z,11.26
2023-05-02T03:23:56.521Z,11.27
2023-05-02T03:26:24.519Z,11.26
2023-05-02T03:28:52.377Z,11.23
2023-05-02T03:31:27.004Z,11.29
2023-05-02T03:33:55.070Z,11.26
2023-05-02T03:36:22.291Z,11.24
2023-05-02T03:38:50.121Z,11.24
2023-05-02T03:41:17.364Z,11.25
2023-05-02T03:43:45.772Z,11.23
2023-05-02T03:46:12.864Z,11.21
2023-05-02T03:48:43.475Z,11.23
2023-05-02T03:51:10.150Z,11.25
2023-05-02T03:53:42.203Z,11.25
2023-05-02T03:56:08.893Z,11.25
2023-05-02T03:58:48.678Z,11.22
2023-05-02T04:01:19.387Z,11.19
2023-05-02T04:03:50.211Z,11.17
2023-05-02T04:06:18.487Z,11.18
2023-05-02T04:08:50.572Z,11.19
2023-05-02T04:11:17.406Z,11.20
2023-05-02T04:13:44.162Z,11.20
2023-05-02T04:16:12.844Z,11.19
2023-05-02T04:18:39.838Z,11.17
2023-05-02T04:21:07.886Z,11.16
2023-05-02T04:23:34.438Z,11.19
2023-05-02T04:26:02.531Z,11.19
2023-05-02T04:28:39.392Z,11.20
2023-05-02T04:31:06.931Z,11.19
2023-05-02T04:33:34.912Z,11.18
2023-05-02T04:36:01.457Z,11.18
2023-05-02T04:38:28.534Z,11.16
2023-05-02T04:40:55.207Z,11.16
2023-05-02T04:43:29.795Z,11.15
2023-05-02T04:46:00.509Z,11.19
2023-05-02T04:48:35.177Z,11.20
2023-05-02T04:51:01.975Z,11.20
2023-05-02T04:53:30.095Z,11.18
2023-05-02T04:55:57.282Z,11.16
2023-05-02T04:58:23.957Z,11.15
2023-05-02T05:00:57.881Z,11.14
2023-05-02T05:03:24.845Z,11.08
2023-05-02T05:05:53.315Z,11.09
2023-05-02T05:08:22.150Z,11.06
2023-05-02T05:10:48.807Z,11.09
2023-05-02T05:13:16.443Z,11.13
2023-05-02T05:15:47.645Z,11.14
2023-05-02T05:18:16.250Z,11.18
2023-05-02T05:20:43.255Z,11.15
2023-05-02T05:23:12.120Z,11.16
2023-05-02T05:25:38.801Z,11.18
2023-05-02T05:28:05.437Z,11.20
2023-05-02T05:30:34.945Z,11.22
2023-05-02T05:33:04.232Z,11.17
2023-05-02T05:35:31.396Z,11.14
2023-05-02T05:37:59.245Z,11.13
2023-05-02T05:40:28.473Z,11.12
2023-05-02T05:42:57.778Z,11.10
2023-05-02T05:45:28.899Z,11.10
2023-05-02T05:47:55.663Z,11.07
2023-05-02T05:50:24.339Z,11.09
2023-05-02T05:52:51.026Z,11.04
2023-05-02T05:55:17.938Z,11.06
2023-05-02T05:57:45.919Z,11.05
2023-05-02T06:00:13.821Z,11.00
2023-05-02T06:02:44.285Z,11.06
2023-05-02T06:05:18.266Z,11.06
2023-05-02T06:07:44.951Z,11.10
2023-05-02T06:10:11.735Z,11.11
2023-05-02T06:12:40.774Z,11.14
2023-05-02T06:15:13.979Z,11.21
2023-05-02T06:17:45.781Z,11.27
2023-05-02T06:20:12.754Z,11.31
2023-05-02T06:22:39.273Z,11.48
2023-05-02T06:25:06.934Z,11.61
2023-05-02T06:27:33.819Z,11.83
2023-05-02T06:30:00.896Z,12.02
2023-05-02T06:32:31.822Z,12.16
2023-05-02T06:34:58.669Z,12.21
2023-05-02T06:37:25.315Z,12.22
2023-05-02T06:39:51.965Z,12.09
2023-05-02T06:42:18.735Z,12.00
2023-05-02T06:44:45.386Z,12.09
2023-05-02T06:47:12.310Z,12.21
2023-05-02T06:49:40.275Z,12.23
2023-05-02T06:52:06.908Z,12.33
2023-05-02T06:54:33.717Z,12.43
2023-05-02T06:57:00.597Z,12.44
2023-05-02T06:59:27.373Z,12.37
2023-05-02T07:01:53.994Z,12.41
2023-05-02T07:04:20.612Z,12.38
2023-05-02T07:06:48.898Z,12.46
2023-05-02T07:09:15.926Z,12.33
2023-05-02T07:11:42.568Z,12.27
2023-05-02T07:14:09.208Z,12.44
2023-05-02T07:16:35.835Z,12.74
2023-05-02T07:19:02.449Z,12.98
2023-05-02T07:21:28.979Z,13.11
2023-05-02T07:23:57.213Z,13.25
2023-05-02T07:26:24.303Z,13.26
2023-05-02T07:28:50.912Z,13.37
2023-05-02T07:31:18.947Z,13.29
2023-05-02T07:33:45.755Z,13.16
2023-05-02T07:36:12.394Z,13.14
2023-05-02T07:38:38.984Z,13.10
2023-05-02T07:41:07.130Z,12.94
2023-05-02T07:43:33.976Z,12.67
2023-05-02T07:46:04.537Z,12.47
2023-05-02T07:48:31.137Z,12.30
2023-05-02T07:51:07.207Z,12.20
2023-05-02T07:53:34.024Z,12.05
2023-05-02T07:56:00.630Z,12.07
2023-05-02T07:58:28.714Z,12.02
2023-05-02T08:00:55.274Z,11.94
2023-05-02T08:03:22.139Z,11.89
2023-05-02T08:05:48.881Z,11.82
2023-05-02T08:08:15.731Z,11.80
2023-05-02T08:10:42.280Z,11.85
2023-05-02T08:13:08.939Z,11.86
2023-05-02T08:15:36.931Z,11.90
2023-05-02T08:18:06.808Z,11.90
2023-05-02T08:20:33.430Z,11.99
2023-05-02T08:23:00.419Z,12.05
2023-05-02T08:25:27.203Z,12.41
2023-05-02T08:27:53.779Z,12.52
2023-05-02T08:30:20.330Z,12.71
2023-05-02T08:32:48.349Z,12.96
2023-05-02T08:35:14.928Z,13.08
2023-05-02T08:37:42.056Z,13.37
2023-05-02T08:40:12.839Z,13.59
2023-05-02T08:42:42.347Z,13.55
2023-05-02T08:45:10.854Z,13.39
2023-05-02T08:47:38.811Z,13.26
2023-05-02T08:50:08.857Z,13.14
2023-05-02T08:52:35.743Z,13.02
2023-05-02T08:55:03.374Z,13.05
2023-05-02T08:57:30.673Z,13.12
2023-05-02T08:59:57.481Z,13.23
2023-05-02T09:02:46.649Z,13.49
2023-05-02T09:05:19.779Z,13.82
2023-05-02T09:07:47.818Z,14.22
2023-05-02T09:10:15.069Z,14.15
2023-05-02T09:12:41.960Z,14.24
2023-05-02T09:15:13.202Z,14.25
2023-05-02T09:17:41.663Z,14.33
2023-05-02T09:20:09.794Z,15.06
2023-05-02T09:22:38.230Z,15.41
2023-05-02T09:25:06.041Z,15.83
2023-05-02T09:27:51.034Z,15.78
2023-05-02T09:30:19.429Z,15.31
2023-05-02T09:32:47.203Z,14.90
2023-05-02T09:35:14.421Z,14.40
2023-05-02T09:37:42.391Z,13.93
2023-05-02T09:40:10.661Z,13.66
2023-05-02T09:42:37.361Z,13.49
2023-05-02T09:45:04.677Z,13.47
2023-05-02T09:47:31.360Z,13.57
2023-05-02T09:49:57.968Z,13.74
2023-05-02T09:52:24.612Z,13.99
2023-05-02T09:54:52.539Z,14.02
2023-05-02T09:57:19.296Z,14.36
2023-05-02T09:59:56.671Z,14.48
2023-05-02T10:02:24.687Z,14.61
2023-05-02T10:04:53.450Z,14.68
2023-05-02T10:07:20.683Z,15.18
2023-05-02T10:09:49.310Z,15.31
2023-05-02T10:12:22.520Z,15.17
2023-05-02T10:14:54.805Z,14.89
2023-05-02T10:17:22.681Z,15.10
2023-05-02T10:19:56.748Z,14.79
2023-05-02T10:22:24.366Z,14.80
2023-05-02T10:24:52.670Z,14.98
2023-05-02T10:27:21.214Z,15.03
2023-05-02T10:29:48.510Z,15.00
2023-05-02T10:32:17.769Z,15.77
2023-05-02T10:34:46.096Z,16.20
2023-05-02T10:37:12.701Z,16.98
2023-05-02T10:39:39.385Z,17.68
2023-05-02T10:42:06.896Z,19.79
2023-05-02T10:44:35.841Z,21.72
2023-05-02T10:47:18.410Z,21.30
2023-05-02T10:49:50.294Z,20.32
2023-05-02T10:52:27.329Z,19.54
2023-05-02T10:55:13.818Z,19.87
2023-05-02T10:58:13.686Z,20.29
2023-05-02T11:00:41.755Z,21.24
2023-05-02T11:03:08.826Z,21.11
2023-05-02T11:06:05.068Z,21.76
2023-05-02T11:08:31.706Z,21.20
2023-05-02T11:11:37.334Z,20.95
2023-05-02T11:14:04.055Z,19.92
2023-05-02T11:17:00.513Z,20.20
2023-05-02T11:19:31.337Z,21.68
2023-05-02T11:22:32.334Z,23.88
2023-05-02T11:24:59.193Z,21.78
2023-05-02T11:27:38.166Z,22.15
2023-05-02T11:30:05.761Z,20.82
2023-05-02T11:33:05.739Z,19.88
2023-05-02T11:35:35.752Z,18.72
2023-05-02T11:38:04.046Z,17.91
2023-05-02T11:40:31.566Z,17.86
2023-05-02T11:42:59.587Z,17.75
2023-05-02T11:45:33.561Z,17.70
2023-05-02T11:48:00.368Z,17.79
2023-05-02T11:50:27.454Z,18.50
2023-05-02T11:52:55.436Z,19.56
2023-05-02T11:55:22.429Z,20.98
2023-05-02T11:57:49.050Z,20.98
2023-05-02T12:00:16.166Z,20.60
2023-05-02T12:02:44.193Z,20.32
2023-05-02T12:05:13.694Z,19.26
2023-05-02T12:07:41.392Z,18.39
2023-05-02T12:10:10.394Z,17.68
2023-05-02T12:12:37.898Z,17.06
2023-05-02T12:15:05.159Z,16.95
2023-05-02T12:17:32.487Z,17.33
2023-05-02T12:19:59.406Z,19.03
2023-05-02T12:22:26.556Z,21.33
2023-05-02T12:24:53.324Z,22.38
2023-05-02T12:27:21.263Z,23.00
2023-05-02T12:29:49.005Z,22.95
2023-05-02T12:32:27.601Z,23.93
2023-05-02T12:34:54.677Z,25.33
2023-05-02T12:37:22.901Z,25.77
2023-05-02T12:39:49.583Z,25.53
2023-05-02T12:42:17.676Z,24.80
2023-05-02T12:44:48.098Z,24.15
2023-05-02T12:47:16.163Z,22.88
2023-05-02T12:49:49.772Z,22.58
2023-05-02T12:52:16.456Z,23.55
2023-05-02T12:54:44.485Z,25.12
2023-05-02T12:57:23.284Z,25.53
2023-05-02T12:59:53.139Z,26.82
2023-05-02T13:02:20.175Z,25.36
2023-05-02T13:04:47.026Z,23.41
2023-05-02T13:07:13.646Z,22.05
2023-05-02T13:09:40.338Z,21.22
2023-05-02T13:12:06.968Z,21.46
2023-05-02T13:14:33.777Z,22.82
2023-05-02T13:17:01.898Z,23.94
2023-05-02T13:19:28.599Z,25.08
2023-05-02T13:21:55.224Z,26.36
2023-05-02T13:24:21.837Z,26.38
2023-05-02T13:26:48.366Z,26.73
2023-05-02T13:29:14.921Z,25.54
2023-05-02T13:31:41.487Z,26.04
2023-05-02T13:34:09.437Z,25.29
2023-05-02T13:36:36.201Z,25.47
2023-05-02T13:39:02.858Z,26.76
2023-05-02T13:41:29.516Z,27.24
2023-05-02T13:43:56.213Z,27.05
2023-05-02T13:46:23.042Z,27.18
2023-05-02T13:48:49.567Z,27.06
2023-05-02T13:51:17.879Z,27.21
2023-05-02T13:53:44.628Z,26.51
2023-05-02T13:56:11.167Z,26.97
2023-05-02T13:58:38.196Z,26.37
2023-05-02T14:01:05.047Z,24.51
2023-05-02T14:03:31.765Z,24.22
2023-05-02T14:05:58.492Z,24.00
2023-05-02T14:08:26.492Z,24.23
2023-05-02T14:10:53.084Z,24.68
2023-05-02T14:13:19.842Z,25.22
2023-05-02T14:15:46.544Z,24.75
2023-05-02T14:18:13.226Z,24.74
2023-05-02T14:20:39.826Z,24.46
2023-05-02T14:23:07.568Z,24.31
2023-05-02T14:25:36.041Z,24.35
2023-05-02T14:28:02.921Z,24.09
2023-05-02T14:30:29.614Z,23.80
2023-05-02T14:32:56.252Z,24.02
2023-05-02T14:35:23.472Z,24.36
2023-05-02T14:37:50.669Z,25.20
2023-05-02T14:40:19.217Z,24.60
2023-05-02T14:42:47.106Z,22.97
2023-05-02T14:45:13.800Z,22.72
2023-05-02T14:47:40.485Z,22.44
2023-05-02T14:50:07.915Z,22.60
2023-05-02T14:52:34.581Z,22.67
2023-05-02T14:55:01.767Z,22.38
2023-05-02T14:57:28.500Z,22.18
2023-05-02T14:59:56.806Z,21.91
2023-05-02T15:02:23.580Z,22.01
2023-05-02T15:04:50.388Z,21.47
2023-05-02T15:07:17.347Z,20.78
2023-05-02T15:09:45.271Z,20.44
2023-05-02T15:12:11.872Z,20.52
2023-05-02T15:14:38.508Z,20.19
2023-05-02T15:17:06.546Z,20.14
2023-05-02T15:19:33.318Z,19.91
2023-05-02T15:21:59.904Z,19.83
2023-05-02T15:24:26.526Z,19.47
2023-05-02T15:26:53.441Z,19.24
2023-05-02T15:29:20.345Z,19.28
2023-05-02T15:31:47.121Z,19.24
2023-05-02T15:34:15.087Z,19.30
2023-05-02T15:36:46.640Z,19.24
2023-05-02T15:39:13.396Z,19.07
2023-05-02T15:41:40.079Z,18.77
2023-05-02T15:44:06.680Z,18.67
2023-05-02T15:46:33.341Z,18.35
2023-05-02T15:49:00.173Z,18.44
2023-05-02T15:51:28.288Z,18.50
2023-05-02T15:53:55.328Z,18.34
2023-05-02T15:56:21.947Z,18.43
2023-05-02T15:58:48.830Z,18.22
2023-05-02T16:01:15.807Z,17.95
2023-05-02T16:03:42.722Z,17.95
2023-05-02T16:06:09.521Z,17.76
2023-05-02T16:08:37.539Z,17.71
2023-05-02T16:11:04.210Z,17.66
2023-05-02T16:13:30.864Z,17.69
2023-05-02T16:15:57.455Z,17.57
2023-05-02T16:18:24.033Z,17.31
2023-05-02T16:20:50.610Z,17.23
2023-05-02T16:23:17.231Z,17.20
2023-05-02T16:25:45.147Z,17.29
2023-05-02T16:28:11.774Z,17.22
2023-05-02T16:30:38.438Z,17.09
2023-05-02T16:33:05.200Z,16.96
2023-05-02T16:35:32.484Z,16.90
2023-05-02T16:37:59.083Z,16.86
2023-05-02T16:40:27.478Z,16.79
2023-05-02T16:42:56.337Z,16.77
2023-05-02T16:45:23.120Z,16.85
2023-05-02T16:47:49.842Z,16.74
2023-05-02T16:50:16.482Z,16.64
2023-05-02T16:52:43.064Z,16.56
2023-05-02T16:55:09.877Z,16.48
2023-05-02T16:57:36.431Z,16.36
2023-05-02T17:00:05.833Z,16.30
2023-05-02T17:02:34.089Z,16.31
2023-05-02T17:05:00.812Z,16.26
2023-05-02T17:07:29.725Z,16.23
2023-05-02T17:09:56.382Z,16.22
2023-05-02T17:12:23.008Z,16.13
2023-05-02T17:14:49.660Z,16.15
2023-05-02T17:17:17.640Z,16.12
2023-05-02T17:19:44.301Z,16.04
2023-05-02T17:22:11.023Z,15.92
2023-05-02T17:24:37.574Z,15.87
2023-05-02T17:27:04.140Z,15.76
2023-05-02T17:29:30.727Z,15.74
2023-05-02T17:31:57.333Z,15.62
2023-05-02T17:34:25.219Z,15.55
2023-05-02T17:36:51.847Z,15.45
2023-05-02T17:39:18.429Z,15.35
2023-05-02T17:41:45.150Z,15.29
2023-05-02T17:44:11.742Z,15.29
2023-05-02T17:46:38.432Z,15.13
2023-05-02T17:49:05.166Z,15.08
2023-05-02T17:51:33.261Z,15.00
2023-05-02T17:53:59.981Z,14.80
2023-05-02T17:56:26.570Z,14.78
2023-05-02T17:58:53.310Z,14.65
2023-05-02T18:01:20.041Z,14.65
2023-05-02T18:03:46.886Z,14.58
2023-05-02T18:06:17.193Z,14.50
2023-05-02T18:08:45.897Z,14.44
2023-05-02T18:11:16.021Z,14.46
2023-05-02T18:13:42.713Z,14.41
2023-05-02T18:16:09.543Z,14.39
2023-05-02T18:18:36.282Z,14.36
2023-05-02T18:21:02.915Z,14.34
2023-05-02T18:23:29.771Z,14.23
2023-05-02T18:25:57.715Z,14.11
2023-05-02T18:28:24.360Z,14.09
2023-05-02T18:30:50.969Z,14.01
2023-05-02T18:33:17.579Z,14.01
2023-05-02T18:35:47.594Z,13.88
2023-05-02T18:38:14.538Z,13.76
2023-05-02T18:40:41.426Z,13.58
2023-05-02T18:43:09.716Z,13.48
2023-05-02T18:45:36.466Z,13.39
2023-05-02T18:48:03.735Z,13.31
2023-05-02T18:50:30.290Z,13.19
2023-05-02T18:52:56.937Z,12.97
2023-05-02T18:55:24.832Z,12.93
2023-05-02T18:57:51.762Z,12.88
2023-05-02T19:00:20.473Z,12.82
2023-05-02T19:02:47.940Z,12.73
2023-05-02T19:05:14.805Z,12.59
2023-05-02T19:07:41.435Z,12.43
2023-05-02T19:10:08.749Z,12.32
2023-05-02T19:12:35.349Z,12.25
2023-05-02T19:15:02.164Z,12.11
2023-05-02T19:17:30.418Z,12.07
2023-05-02T19:19:58.231Z,11.90
2023-05-02T19:22:25.083Z,11.88
2023-05-02T19:24:51.628Z,11.83
2023-05-02T19:27:18.395Z,11.76
2023-05-02T19:29:45.044Z,11.71
2023-05-02T19:32:11.644Z,11.60
2023-05-02T19:34:39.620Z,11.56
2023-05-02T19:37:06.469Z,11.49
2023-05-02T19:39:33.091Z,11.45
2023-05-02T19:41:59.700Z,11.37
2023-05-02T19:44:26.259Z,11.31
2023-05-02T19:46:52.856Z,11.16
2023-05-02T19:49:19.424Z,11.06
2023-05-02T19:51:47.449Z,10.99
2023-05-02T19:54:13.991Z,10.99
2023-05-02T19:56:40.654Z,10.89
2023-05-02T19:59:07.468Z,10.88
2023-05-02T20:01:34.140Z,10.78
2023-05-02T20:04:00.775Z,10.78
2023-05-02T20:06:27.634Z,10.73
2023-05-02T20:08:55.620Z,10.61
2023-05-02T20:11:22.226Z,10.64
2023-05-02T20:13:48.839Z,10.66
2023-05-02T20:16:15.806Z,10.58
2023-05-02T20:18:42.453Z,10.47
2023-05-02T20:21:09.284Z,10.44
2023-05-02T20:23:35.966Z,10.42
2023-05-02T20:26:04.061Z,10.41
2023-05-02T20:28:30.624Z,10.42
2023-05-02T20:30:57.218Z,10.44
2023-05-02T20:33:27.612Z,10.36
2023-05-02T20:36:00.297Z,10.37
2023-05-02T20:38:26.906Z,10.43
2023-05-02T20:40:53.621Z,10.36
2023-05-02T20:43:21.704Z,10.33
2023-05-02T20:45:48.640Z,10.33
2023-05-02T20:48:16.490Z,10.32
2023-05-02T20:50:51.574Z,10.23
2023-05-02T20:53:19.271Z,10.20
2023-05-02T20:55:46.441Z,10.11
2023-05-02T20:58:13.310Z,10.10
2023-05-02T21:00:41.376Z,10.01
2023-05-02T21:03:08.040Z,9.88
2023-05-02T21:05:34.856Z,9.83
2023-05-02T21:08:01.415Z,9.80
2023-05-02T21:10:29.851Z,9.80
2023-05-02T21:12:56.644Z,9.76
2023-05-02T21:21:02.218Z,9.56
2023-05-02T21:23:28.796Z,9.48
2023-05-02T21:25:55.951Z,9.38
2023-05-02T21:28:22.483Z,9.34
2023-05-02T21:30:49.108Z,9.31
2023-05-02T21:33:16.321Z,9.26
2023-05-02T21:35:43.691Z,9.23
2023-05-02T21:38:12.206Z,9.27
2023-05-02T21:40:38.946Z,9.22
2023-05-02T21:43:05.618Z,9.20
2023-05-02T21:45:32.279Z,9.07
2023-05-02T21:47:58.990Z,9.02
2023-05-02T21:50:25.668Z,9.01
2023-05-02T21:52:52.746Z,8.94
2023-05-02T21:55:20.905Z,8.87
2023-05-02T21:57:47.866Z,8.77
2023-05-02T22:00:15.085Z,8.76
2023-05-02T22:02:41.685Z,8.79
2023-05-02T22:05:08.766Z,8.65
2023-05-02T22:07:35.407Z,8.65
2023-05-02T22:10:02.383Z,8.61
2023-05-02T22:12:30.564Z,8.64
2023-05-02T22:14:57.170Z,8.60
2023-05-02T22:17:23.763Z,8.49
2023-05-02T22:19:50.842Z,8.45
2023-05-02T22:22:17.647Z,8.39
2023-05-02T22:24:44.285Z,8.39
2023-05-02T22:27:10.881Z,8.35
2023-05-02T22:29:39.022Z,8.36
2023-05-02T22:32:06.072Z,8.28
2023-05-02T22:34:32.783Z,8.19
2023-05-02T22:36:59.476Z,8.23
2023-05-02T22:39:26.088Z,8.22
2023-05-02T22:41:52.709Z,8.17
2023-05-02T22:44:19.399Z,8.17
2023-05-02T22:46:47.394Z,8.11
2023-05-02T22:49:13.983Z,8.15
2023-05-02T22:51:41.649Z,8.06
2023-05-02T22:54:08.341Z,8.05
2023-05-02T22:56:35.046Z,8.00
2023-05-02T22:59:01.665Z,7.96
2023-05-02T23:01:28.257Z,7.99
2023-05-02T23:03:56.303Z,7.98
2023-05-02T23:06:23.227Z,7.93
2023-05-02T23:08:49.904Z,7.88
2023-05-02T23:11:16.548Z,7.82
2023-05-02T23:13:43.200Z,7.78
2023-05-02T23:16:09.896Z,7.84
2023-05-02T23:18:36.519Z,7.75
2023-05-02T23:21:04.976Z,7.74
2023-05-02T23:23:31.654Z,7.63
2023-05-02T23:25:58.388Z,7.61
2023-05-02T23:28:25.725Z,7.54
2023-05-02T23:30:52.632Z,7.57
2023-05-02T23:33:19.360Z,7.51
2023-05-02T23:35:48.017Z,7.53
2023-05-02T23:38:16.149Z,7.43
2023-05-02T23:40:42.829Z,7.44
2023-05-02T23:43:09.908Z,7.35
2023-05-02T23:45:36.523Z,7.35
2023-05-02T23:48:03.371Z,7.29
2023-05-02T23:50:31.606Z,7.27
2023-05-02T23:52:58.325Z,7.24
2023-05-02T23:55:26.343Z,7.17
2023-05-02T23:57:52.985Z,7.14
